航空気象通報

ウインドサーファーのための航空気象通報による風予報です。

11/30-12/1の航空気象通報(国内、海外)

2008年11月30日 21時43分56秒 | TAF
羽田空港
TAF RJTT 300836Z 3009/0112 35014KT 9999 FEW030
TEMPO 3009/3012 35018G28KT
BECMG 0100/0103 08008KT
日本時間30日18時-1日09時:350度から14ノットの風
但し、30日18-21時の間:一時、350度から18ノット、突風28ノット
1日09-12時:風が変化
12-21時:080度から8ノットの風


那覇空港
TAF ROAH 300836Z 3009/0112 03009KT 9999 FEW030
日本時間30日18時-1日21時:030度から9ノットの風


マウイのカフルイ空港
PHOG 301129Z 3012/0112 05007KT P6SM FEW050
FM302000 05012KT P6SM FEW050
FM010400 11005KT P6SM FEW050
ハワイ時間30日03-10時:050度から7ノットの風
10-18時:050度から12ノットの風
18時-1日02時:110度から5ノットの風


サイパン空港
PGSN 301120Z 3012/0112 08011KT P6SM VCSH SCT016
TEMPO 3012/3015 -SHRA BKN016 BKN100
マリアナ時間30日22時-1日21時:080度から11ノットの風
、但し、30日22時-1日01時の間:一時、
コメント

11/29-30の航空気象通報(国内、海外)

2008年11月29日 22時30分43秒 | TAF
羽田空港
TAF RJTT 290847Z 2909/3012 21016KT 9999 FEW030
TEMPO 2909/2915 21018G30KT
BECMG 2918/2921 30008KT
BECMG 3006/3009 36016KT
日本時間29日18時-30日03時:210度から16ノットの風
但し、29日18-24時の間:一時、210度から18ノット、突風30ノット
30日03-06時:風が変化
06-15時:300度から8ノットの風
15-18時:風が変化
18-21時:360度から16ノットの風


那覇空港
TAF ROAH 290836Z 2909/3012 36013KT 9999 SCT045
日本時間29日18時-30日21時:360度から13ノットの風


マウイのカフルイ空港
PHOG 291138Z 2912/3012 VRB03KT P6SM SCT050
FM292000 04014KT P6SM FEW050 BKN250
FM301000 05007KT P6SM FEW050
ハワイ時間29日03-10時:風向不定3ノットの風

10-24時:040度から14ノットの風

30日0019-02時:050度から7ノットの風


サイパン空港
PGSN 291120Z 2912/3012 07011KT P6SM SCT020 BKN070
FM292100 10013KT P6SM VCSH SCT020
マリアナ時間29日22時-30日07時:070度から11ノットの風
07-22時:100度から13ノットの風

コメント

11/28-29の航空気象通報(国内、海外)

2008年11月28日 23時44分51秒 | TAF
羽田空港
TAF RJTT 280843Z 2809/2912 34012KT 9999 FEW030
BECMG 2900/2903 16008KT
BECMG 2909/2912 21018KT
日本時間28日18-29日09時:340度から12ノットの風
09-12時:風が変化
12-18時:160度から8ノットの風
18-21時:風が変化
21時:210度から18ノットの風


那覇空港
TAF ROAH 280842Z 2809/2912 36014KT 9999 FEW035 BKN045
日本時間28日18時-29日21時:360度から14ノットの風


マウイのカフルイ空港
PHOG 281120Z 2812/2912 VRB03KT P6SM SCT050
FM281700 16008KT P6SM SCT050
FM290300 03006KT P6SM SCT050
FM290800 VRB03KT P6SM SCT050
ハワイ時間28日02-07時:風向不定3ノットの風
07-17時:160度から8ノットの風
17-22時:030度から6ノットの風
22時-29日02時:風向不定3ノットの風


サイパン空港
PGSN 281121Z 2812/2912 07011KT P6SM VCSH SCT022
マリアナ時間28日22時-29日22時:070度から11ノットの風
コメント

11/27-28の航空気象通報(国内、海外)

2008年11月28日 00時14分13秒 | TAF
羽田空港
TAF RJTT 271437Z 2715/2818 01010KT 4000 -RA BR FEW006 BKN008 BKN015
TEMPO 2715/2720 3000 RA BR
TEMPO 2720/2724 2000 SHRA BR FEW003 BKN005 BKN010
BECMG 2800/2803 21018KT 6000 NSW FEW015 BKN030
TEMPO 2803/2809 21020G30KT
BECMG 2809/2812 27015KT
日本時間28日00-09時:010度から10ノットの風

09-12時:風が変化
12-18時:210度から18ノットの風
但し、12-18時の間:一時、210度から20ノット、突風30ノット
18-21時:風が変化
21時-29日03時:270度から15ノットの風


那覇空港
TAF ROAH 271436Z 2715/2818 34022KT 9999 FEW025 SCT045
TEMPO 2715/2719 34024G34KT
BECMG 2812/2815 36012KT
日本時間28日00-21時:340度から22ノットの風
但し、28日00-04時の間:一時、340度から24ノット、突風34ノット
21-24時:風が変化
29日00-03時:360度から12ノットの風


マウイのカフルイ空港
PHOG 271140Z 2712/2812 09008KT P6SM FEW050
FM272000 05014G22KT P6SM SCT040
FM280500 13009KT P6SM FEW035
FM280700 15006KT P6SM SCT035
ハワイ時間27日02-10時:090度から8ノットの風
10-19時:050度から14ノット、突風22ノット
19-21時:130度から9ノットの風
21時-28日02時:150度から6ノットの風


サイパン空港
PGSN 271120Z 2712/2812 10014G22KT P6SM VCSH SCT022
マリアナ時間27日22時-28日22時:100度から14ノット、突風22ノット

コメント

11/26-27の航空気象通報(国内、海外)

2008年11月26日 23時57分32秒 | TAF
羽田空港
TAF RJTT 260842Z 2609/2712 08010KT 9999 FEW030 SCT050
BECMG 2614/2616 02006KT
BECMG 2700/2703 07006KT
BECMG 2709/2712 36006KT
日本時間26日18-23時:080度から10ノットの風
23時-27日01時:風が変化
01-09時:020度から6ノットの風
09-12時:風が変化
12-18時:070度から6ノットの風
18-21時:風が変化
21時:360度から6ノットの風


那覇空港
TAF ROAH 260845Z 2609/2712 07012KT 9999 FEW025 SCT045
TEMPO 2618/2624 4000 SHRA
TEMPO 2700/2706 3000 +SHRA FEW008 SCT010 BKN020 FEW025CB
BECMG 2703/2706 01022KT
日本時間26日18時-27日12時:070度から12ノットの風
12-15時:風が変化
15-21時:010度から22ノットの風

但し、26日18時-27日15時の間:一時、

マウイのカフルイ空港
PHOG 261138Z 2612/2712 07008KT P6SM FEW040
FM261800 05015G25KT P6SM SCT030
FM270500 05012KT P6SM FEW040
ハワイ時間26日03-08時:070度から8ノットの風
08-19時:050度から15ノット、突風25ノット
19時-27日02時:050度から12ノットの風


サイパン空港
PGSN 261123Z 2612/2712 06011G21KT P6SM VCSH SCT022 SCT100
マリアナ時間26日22時-27日22時:060度から11ノット、突風21ノット

コメント